sensor_id;sensor_type;location;lat;lon;timestamp;pressure;altitude;pressure_sealevel;temperature;humidity
59829;BME280;45708;51.848;107.620;2023-06-22T00:04:30;93903.84;;;28.20;26.46
59829;BME280;45708;51.848;107.620;2023-06-22T00:09:31;93901.06;;;27.97;26.03
59829;BME280;45708;51.848;107.620;2023-06-22T00:14:32;93900.78;;;28.02;26.33
59829;BME280;45708;51.848;107.620;2023-06-22T00:19:33;93890.06;;;28.09;26.06
59829;BME280;45708;51.848;107.620;2023-06-22T00:24:34;93884.28;;;28.11;25.88
59829;BME280;45708;51.848;107.620;2023-06-22T00:29:35;93885.25;;;27.29;27.28
59829;BME280;45708;51.848;107.620;2023-06-22T00:34:35;93885.56;;;27.78;26.82
59829;BME280;45708;51.848;107.620;2023-06-22T00:39:36;93858.84;;;28.00;26.76
59829;BME280;45708;51.848;107.620;2023-06-22T00:44:37;93882.00;;;28.78;26.10
59829;BME280;45708;51.848;107.620;2023-06-22T00:49:41;93891.19;;;29.16;25.66
59829;BME280;45708;51.848;107.620;2023-06-22T00:54:43;93880.72;;;29.18;25.48
59829;BME280;45708;51.848;107.620;2023-06-22T00:59:45;93888.50;;;28.70;26.41
59829;BME280;45708;51.848;107.620;2023-06-22T01:04:46;93873.50;;;29.02;26.32
59829;BME280;45708;51.848;107.620;2023-06-22T01:16:22;93883.41;;;29.97;25.51
59829;BME280;45708;51.848;107.620;2023-06-22T01:21:04;93869.25;;;30.14;24.66
59829;BME280;45708;51.848;107.620;2023-06-22T01:26:25;93861.41;;;30.09;24.78
59829;BME280;45708;51.848;107.620;2023-06-22T01:31:29;93852.81;;;30.07;24.76
59829;BME280;45708;51.848;107.620;2023-06-22T01:36:33;93845.44;;;30.08;24.74
59829;BME280;45708;51.848;107.620;2023-06-22T01:41:36;93832.66;;;30.15;24.88
59829;BME280;45708;51.848;107.620;2023-06-22T01:46:38;93828.84;;;30.23;25.51
59829;BME280;45708;51.848;107.620;2023-06-22T01:51:40;93805.81;;;30.54;24.71
59829;BME280;45708;51.848;107.620;2023-06-22T01:56:40;93803.25;;;30.28;24.93
59829;BME280;45708;51.848;107.620;2023-06-22T02:01:44;93798.69;;;30.43;25.09
59829;BME280;45708;51.848;107.620;2023-06-22T02:06:51;93797.59;;;30.99;24.06
59829;BME280;45708;51.848;107.620;2023-06-22T02:11:56;93761.38;;;31.02;24.40
59829;BME280;45708;51.848;107.620;2023-06-22T02:16:57;93795.81;;;31.17;24.08
59829;BME280;45708;51.848;107.620;2023-06-22T02:21:58;93798.41;;;30.14;25.60
59829;BME280;45708;51.848;107.620;2023-06-22T02:27:00;93778.44;;;30.03;25.99
59829;BME280;45708;51.848;107.620;2023-06-22T02:32:01;93779.56;;;30.83;25.70
59829;BME280;45708;51.848;107.620;2023-06-22T02:37:02;93773.56;;;31.15;25.19
59829;BME280;45708;51.848;107.620;2023-06-22T02:42:03;93755.66;;;30.18;25.95
59829;BME280;45708;51.848;107.620;2023-06-22T02:47:04;93763.91;;;30.25;26.16
59829;BME280;45708;51.848;107.620;2023-06-22T02:52:05;93750.69;;;30.27;26.26
59829;BME280;45708;51.848;107.620;2023-06-22T02:57:06;93743.13;;;31.06;25.90
59829;BME280;45708;51.848;107.620;2023-06-22T03:02:08;93741.72;;;31.30;25.25
59829;BME280;45708;51.848;107.620;2023-06-22T03:07:09;93735.19;;;29.94;26.68
59829;BME280;45708;51.848;107.620;2023-06-22T03:12:10;93721.31;;;29.06;28.63
59829;BME280;45708;51.848;107.620;2023-06-22T03:17:10;93715.88;;;28.27;29.69
59829;BME280;45708;51.848;107.620;2023-06-22T03:22:11;93710.94;;;28.13;29.91
59829;BME280;45708;51.848;107.620;2023-06-22T03:27:12;93692.91;;;28.24;29.82
59829;BME280;45708;51.848;107.620;2023-06-22T03:32:14;93686.88;;;28.11;30.42
59829;BME280;45708;51.848;107.620;2023-06-22T03:37:15;93691.53;;;28.11;30.30
59829;BME280;45708;51.848;107.620;2023-06-22T03:42:16;93664.78;;;28.13;30.54
59829;BME280;45708;51.848;107.620;2023-06-22T03:47:17;93674.13;;;28.65;30.35
59829;BME280;45708;51.848;107.620;2023-06-22T03:52:18;93655.00;;;28.58;30.92
59829;BME280;45708;51.848;107.620;2023-06-22T03:57:18;93637.88;;;28.54;30.99
59829;BME280;45708;51.848;107.620;2023-06-22T04:02:19;93636.81;;;28.88;30.52
59829;BME280;45708;51.848;107.620;2023-06-22T04:07:20;93626.44;;;29.31;30.42
59829;BME280;45708;51.848;107.620;2023-06-22T04:12:21;93606.06;;;29.18;29.75
59829;BME280;45708;51.848;107.620;2023-06-22T04:17:22;93617.91;;;29.32;29.95
59829;BME280;45708;51.848;107.620;2023-06-22T04:22:22;93618.75;;;29.40;30.28
59829;BME280;45708;51.848;107.620;2023-06-22T04:27:23;93601.84;;;29.57;29.64
59829;BME280;45708;51.848;107.620;2023-06-22T04:32:24;93602.81;;;29.83;29.57
59829;BME280;45708;51.848;107.620;2023-06-22T04:37:25;93589.84;;;30.06;29.21
59829;BME280;45708;51.848;107.620;2023-06-22T04:42:26;93589.75;;;29.99;29.29
59829;BME280;45708;51.848;107.620;2023-06-22T04:47:27;93591.03;;;30.12;28.93
59829;BME280;45708;51.848;107.620;2023-06-22T04:52:28;93574.94;;;29.96;29.25
59829;BME280;45708;51.848;107.620;2023-06-22T04:57:29;93572.38;;;30.14;29.23
59829;BME280;45708;51.848;107.620;2023-06-22T05:02:29;93546.44;;;30.35;28.84
59829;BME280;45708;51.848;107.620;2023-06-22T05:07:30;93544.78;;;30.19;28.43
59829;BME280;45708;51.848;107.620;2023-06-22T05:12:31;93534.75;;;30.38;28.33
59829;BME280;45708;51.848;107.620;2023-06-22T05:17:32;93529.94;;;30.90;27.69
59829;BME280;45708;51.848;107.620;2023-06-22T05:22:33;93524.59;;;31.32;27.96
59829;BME280;45708;51.848;107.620;2023-06-22T05:27:33;93510.97;;;31.54;27.34
59829;BME280;45708;51.848;107.620;2023-06-22T05:32:35;93507.09;;;31.72;26.37
59829;BME280;45708;51.848;107.620;2023-06-22T05:37:36;93509.41;;;31.24;27.11
59829;BME280;45708;51.848;107.620;2023-06-22T05:42:37;93492.66;;;31.51;27.29
59829;BME280;45708;51.848;107.620;2023-06-22T05:47:38;93502.44;;;31.73;26.84
59829;BME280;45708;51.848;107.620;2023-06-22T05:52:39;93477.84;;;31.55;25.92
59829;BME280;45708;51.848;107.620;2023-06-22T05:57:39;93473.53;;;31.58;26.61
59829;BME280;45708;51.848;107.620;2023-06-22T06:02:40;93470.00;;;32.00;26.12
59829;BME280;45708;51.848;107.620;2023-06-22T06:07:45;93462.50;;;32.36;25.95
59829;BME280;45708;51.848;107.620;2023-06-22T06:12:46;93448.09;;;32.32;25.23
59829;BME280;45708;51.848;107.620;2023-06-22T06:17:48;93449.66;;;32.19;25.72
59829;BME280;45708;51.848;107.620;2023-06-22T06:22:50;93436.38;;;32.21;26.32
59829;BME280;45708;51.848;107.620;2023-06-22T06:27:51;93412.88;;;32.48;25.78
59829;BME280;45708;51.848;107.620;2023-06-22T06:32:52;93415.50;;;32.70;25.82
59829;BME280;45708;51.848;107.620;2023-06-22T06:37:53;93410.53;;;33.13;25.82
59829;BME280;45708;51.848;107.620;2023-06-22T06:42:53;93398.69;;;32.71;25.99
59829;BME280;45708;51.848;107.620;2023-06-22T06:47:54;93383.63;;;32.38;25.92
59829;BME280;45708;51.848;107.620;2023-06-22T06:52:55;93389.72;;;32.71;26.09
59829;BME280;45708;51.848;107.620;2023-06-22T06:57:56;93384.19;;;32.78;25.69
59829;BME280;45708;51.848;107.620;2023-06-22T07:02:57;93371.19;;;32.96;25.87
59829;BME280;45708;51.848;107.620;2023-06-22T07:07:57;93361.78;;;33.01;26.13
59829;BME280;45708;51.848;107.620;2023-06-22T07:12:58;93356.22;;;33.11;25.50
59829;BME280;45708;51.848;107.620;2023-06-22T07:17:59;93336.34;;;33.04;25.80
59829;BME280;45708;51.848;107.620;2023-06-22T07:23:00;93342.56;;;33.11;25.82
59829;BME280;45708;51.848;107.620;2023-06-22T07:28:05;93352.06;;;32.96;25.54
59829;BME280;45708;51.848;107.620;2023-06-22T07:33:06;93337.25;;;32.90;25.52
59829;BME280;45708;51.848;107.620;2023-06-22T07:38:07;93321.47;;;33.08;25.31
59829;BME280;45708;51.848;107.620;2023-06-22T07:43:08;93306.72;;;33.40;25.01
59829;BME280;45708;51.848;107.620;2023-06-22T07:48:08;93317.25;;;33.45;25.00
59829;BME280;45708;51.848;107.620;2023-06-22T07:53:09;93279.28;;;33.47;25.00
59829;BME280;45708;51.848;107.620;2023-06-22T07:58:10;93272.56;;;33.55;24.42
59829;BME280;45708;51.848;107.620;2023-06-22T08:03:11;93281.34;;;33.73;23.41
59829;BME280;45708;51.848;107.620;2023-06-22T08:08:11;93268.41;;;33.74;23.31
59829;BME280;45708;51.848;107.620;2023-06-22T08:13:12;93255.31;;;33.58;22.66
59829;BME280;45708;51.848;107.620;2023-06-22T08:18:14;93258.34;;;33.64;22.76
59829;BME280;45708;51.848;107.620;2023-06-22T08:23:15;93259.69;;;33.86;22.69
59829;BME280;45708;51.848;107.620;2023-06-22T08:28:16;93232.88;;;34.01;23.17
59829;BME280;45708;51.848;107.620;2023-06-22T08:33:17;93246.50;;;34.08;23.06
59829;BME280;45708;51.848;107.620;2023-06-22T08:38:17;93245.22;;;33.85;22.94
59829;BME280;45708;51.848;107.620;2023-06-22T08:43:18;93245.63;;;33.80;23.07
59829;BME280;45708;51.848;107.620;2023-06-22T08:48:19;93239.31;;;33.83;23.20
59829;BME280;45708;51.848;107.620;2023-06-22T08:53:20;93236.91;;;33.93;22.40
59829;BME280;45708;51.848;107.620;2023-06-22T08:58:20;93221.56;;;33.68;22.15
59829;BME280;45708;51.848;107.620;2023-06-22T09:03:21;93228.47;;;33.76;22.70
59829;BME280;45708;51.848;107.620;2023-06-22T09:08:22;93227.69;;;33.76;21.70
59829;BME280;45708;51.848;107.620;2023-06-22T09:13:23;93214.31;;;33.81;21.22
59829;BME280;45708;51.848;107.620;2023-06-22T09:18:24;93200.41;;;33.69;20.89
59829;BME280;45708;51.848;107.620;2023-06-22T09:23:25;93201.84;;;33.50;20.96
59829;BME280;45708;51.848;107.620;2023-06-22T09:28:25;93199.25;;;33.36;21.28
59829;BME280;45708;51.848;107.620;2023-06-22T09:33:26;93192.28;;;33.27;22.21
59829;BME280;45708;51.848;107.620;2023-06-22T09:38:27;93187.72;;;33.17;22.41
59829;BME280;45708;51.848;107.620;2023-06-22T09:43:28;93177.22;;;33.12;23.37
59829;BME280;45708;51.848;107.620;2023-06-22T09:48:29;93168.22;;;33.12;23.49
59829;BME280;45708;51.848;107.620;2023-06-22T09:53:30;93169.84;;;33.09;23.96
59829;BME280;45708;51.848;107.620;2023-06-22T09:58:31;93174.44;;;33.16;24.27
59829;BME280;45708;51.848;107.620;2023-06-22T10:03:32;93169.75;;;33.16;23.55
59829;BME280;45708;51.848;107.620;2023-06-22T10:08:33;93158.22;;;32.98;24.24
59829;BME280;45708;51.848;107.620;2023-06-22T10:13:33;93157.81;;;33.00;24.54
59829;BME280;45708;51.848;107.620;2023-06-22T10:18:34;93150.34;;;33.04;24.45
59829;BME280;45708;51.848;107.620;2023-06-22T10:23:35;93145.00;;;32.93;24.36
59829;BME280;45708;51.848;107.620;2023-06-22T10:28:36;93149.94;;;32.67;25.32
59829;BME280;45708;51.848;107.620;2023-06-22T10:33:37;93152.34;;;32.58;24.94
59829;BME280;45708;51.848;107.620;2023-06-22T10:38:38;93141.03;;;32.56;25.29
59829;BME280;45708;51.848;107.620;2023-06-22T10:43:39;93148.06;;;32.57;25.72
59829;BME280;45708;51.848;107.620;2023-06-22T10:48:39;93162.47;;;32.61;25.56
59829;BME280;45708;51.848;107.620;2023-06-22T10:53:40;93118.13;;;32.43;26.13
59829;BME280;45708;51.848;107.620;2023-06-22T10:58:41;93158.41;;;32.77;25.76
59829;BME280;45708;51.848;107.620;2023-06-22T11:03:42;93147.47;;;32.77;26.22
59829;BME280;45708;51.848;107.620;2023-06-22T11:08:44;93143.66;;;32.71;26.45
59829;BME280;45708;51.848;107.620;2023-06-22T11:13:45;93151.44;;;32.72;26.41
59829;BME280;45708;51.848;107.620;2023-06-22T11:18:46;93144.97;;;32.55;27.17
59829;BME280;45708;51.848;107.620;2023-06-22T11:23:47;93144.66;;;32.46;27.21
59829;BME280;45708;51.848;107.620;2023-06-22T11:28:47;93135.44;;;32.26;27.24
59829;BME280;45708;51.848;107.620;2023-06-22T11:33:48;93147.66;;;32.11;27.51
59829;BME280;45708;51.848;107.620;2023-06-22T11:38:49;93142.66;;;31.98;27.92
59829;BME280;45708;51.848;107.620;2023-06-22T11:43:50;93150.91;;;31.91;28.25
59829;BME280;45708;51.848;107.620;2023-06-22T11:48:50;93151.34;;;31.83;27.93
59829;BME280;45708;51.848;107.620;2023-06-22T11:53:51;93156.50;;;31.70;28.44
59829;BME280;45708;51.848;107.620;2023-06-22T11:58:52;93153.81;;;31.59;28.57
59829;BME280;45708;51.848;107.620;2023-06-22T12:03:53;93150.81;;;31.36;28.52
59829;BME280;45708;51.848;107.620;2023-06-22T12:08:54;93154.81;;;31.03;28.95
59829;BME280;45708;51.848;107.620;2023-06-22T12:13:54;93148.69;;;30.74;29.63
59829;BME280;45708;51.848;107.620;2023-06-22T12:18:55;93139.75;;;30.52;29.54
59829;BME280;45708;51.848;107.620;2023-06-22T12:23:56;93147.13;;;30.41;29.64
59829;BME280;45708;51.848;107.620;2023-06-22T12:28:57;93147.16;;;30.12;29.95
59829;BME280;45708;51.848;107.620;2023-06-22T12:33:58;93150.25;;;29.93;29.84
59829;BME280;45708;51.848;107.620;2023-06-22T12:38:58;93142.81;;;29.68;30.35
59829;BME280;45708;51.848;107.620;2023-06-22T12:43:59;93144.34;;;29.48;30.68
59829;BME280;45708;51.848;107.620;2023-06-22T12:49:00;93128.28;;;29.18;31.37
59829;BME280;45708;51.848;107.620;2023-06-22T12:54:01;93142.19;;;29.02;31.57
59829;BME280;45708;51.848;107.620;2023-06-22T12:59:03;93138.19;;;28.82;32.01
59829;BME280;45708;51.848;107.620;2023-06-22T13:04:04;93116.81;;;28.70;32.78
59829;BME280;45708;51.848;107.620;2023-06-22T13:09:04;93130.34;;;28.63;32.95
59829;BME280;45708;51.848;107.620;2023-06-22T13:14:05;93120.56;;;28.47;32.73
59829;BME280;45708;51.848;107.620;2023-06-22T13:19:06;93126.41;;;28.50;32.91
59829;BME280;45708;51.848;107.620;2023-06-22T13:24:08;93134.19;;;28.55;33.63
59829;BME280;45708;51.848;107.620;2023-06-22T13:29:09;93103.03;;;28.34;33.21
59829;BME280;45708;51.848;107.620;2023-06-22T13:34:10;93128.72;;;28.47;33.11
59829;BME280;45708;51.848;107.620;2023-06-22T13:39:10;93133.69;;;28.38;33.82
59829;BME280;45708;51.848;107.620;2023-06-22T13:44:11;93135.50;;;28.24;33.97
59829;BME280;45708;51.848;107.620;2023-06-22T13:49:12;93136.22;;;28.13;34.00
59829;BME280;45708;51.848;107.620;2023-06-22T13:54:13;93125.44;;;28.24;34.04
59829;BME280;45708;51.848;107.620;2023-06-22T13:59:13;93145.84;;;28.04;34.02
59829;BME280;45708;51.848;107.620;2023-06-22T14:04:14;93149.13;;;27.83;34.50
59829;BME280;45708;51.848;107.620;2023-06-22T14:09:17;93153.69;;;27.72;34.58
59829;BME280;45708;51.848;107.620;2023-06-22T14:14:18;93147.34;;;27.61;34.46
59829;BME280;45708;51.848;107.620;2023-06-22T14:19:19;93164.34;;;27.54;34.98
59829;BME280;45708;51.848;107.620;2023-06-22T14:24:20;93172.06;;;27.18;35.71
59829;BME280;45708;51.848;107.620;2023-06-22T14:29:21;93176.53;;;26.74;36.22
59829;BME280;45708;51.848;107.620;2023-06-22T14:34:22;93163.91;;;26.32;36.56
59829;BME280;45708;51.848;107.620;2023-06-22T14:39:23;93170.16;;;26.10;37.12
59829;BME280;45708;51.848;107.620;2023-06-22T14:44:24;93174.00;;;25.86;37.63
59829;BME280;45708;51.848;107.620;2023-06-22T14:49:25;93174.13;;;25.70;37.89
59829;BME280;45708;51.848;107.620;2023-06-22T14:54:25;93177.78;;;25.62;38.12
59829;BME280;45708;51.848;107.620;2023-06-22T14:59:26;93157.81;;;25.43;38.64
59829;BME280;45708;51.848;107.620;2023-06-22T15:04:27;93124.09;;;24.99;39.80
59829;BME280;45708;51.848;107.620;2023-06-22T15:09:28;93183.28;;;25.23;39.49
59829;BME280;45708;51.848;107.620;2023-06-22T15:14:29;93181.16;;;25.13;40.08
59829;BME280;45708;51.848;107.620;2023-06-22T15:19:29;93188.50;;;24.97;40.20
59829;BME280;45708;51.848;107.620;2023-06-22T15:24:31;93215.22;;;24.82;39.92
59829;BME280;45708;51.848;107.620;2023-06-22T15:29:32;93204.94;;;24.53;39.69
59829;BME280;45708;51.848;107.620;2023-06-22T15:34:32;93199.66;;;24.25;39.76
59829;BME280;45708;51.848;107.620;2023-06-22T15:39:33;93190.44;;;24.26;40.71
59829;BME280;45708;51.848;107.620;2023-06-22T15:44:34;93206.63;;;24.26;40.12
59829;BME280;45708;51.848;107.620;2023-06-22T15:49:35;93214.53;;;24.19;39.73
59829;BME280;45708;51.848;107.620;2023-06-22T15:54:36;93221.16;;;23.90;39.54
59829;BME280;45708;51.848;107.620;2023-06-22T15:59:36;93224.94;;;23.57;39.07
59829;BME280;45708;51.848;107.620;2023-06-22T16:04:37;93249.31;;;23.49;38.89
59829;BME280;45708;51.848;107.620;2023-06-22T16:09:38;93246.13;;;23.31;38.65
59829;BME280;45708;51.848;107.620;2023-06-22T16:14:39;93201.84;;;22.76;38.34
59829;BME280;45708;51.848;107.620;2023-06-22T16:19:40;93243.81;;;22.89;38.25
59829;BME280;45708;51.848;107.620;2023-06-22T16:24:41;93251.66;;;22.70;38.86
59829;BME280;45708;51.848;107.620;2023-06-22T16:29:42;93262.22;;;22.38;39.19
59829;BME280;45708;51.848;107.620;2023-06-22T16:34:43;93276.56;;;22.18;39.58
59829;BME280;45708;51.848;107.620;2023-06-22T16:39:44;93277.63;;;21.93;40.23
59829;BME280;45708;51.848;107.620;2023-06-22T16:44:45;93264.13;;;21.68;40.55
59829;BME280;45708;51.848;107.620;2023-06-22T16:49:46;93284.91;;;21.59;40.84
59829;BME280;45708;51.848;107.620;2023-06-22T16:54:46;93251.81;;;21.34;41.93
59829;BME280;45708;51.848;107.620;2023-06-22T16:59:52;93260.44;;;21.19;42.21
59829;BME280;45708;51.848;107.620;2023-06-22T17:04:53;93307.75;;;21.11;42.46
59829;BME280;45708;51.848;107.620;2023-06-22T17:09:56;93283.13;;;21.09;42.43
59829;BME280;45708;51.848;107.620;2023-06-22T17:14:57;93320.97;;;21.16;42.94
59829;BME280;45708;51.848;107.620;2023-06-22T17:19:58;93290.44;;;21.00;43.28
59829;BME280;45708;51.848;107.620;2023-06-22T17:24:59;93297.13;;;20.94;43.45
59829;BME280;45708;51.848;107.620;2023-06-22T17:30:18;93339.81;;;20.87;43.39
59829;BME280;45708;51.848;107.620;2023-06-22T17:35:19;93376.09;;;20.93;44.20
59829;BME280;45708;51.848;107.620;2023-06-22T17:40:22;93383.78;;;21.03;44.01
59829;BME280;45708;51.848;107.620;2023-06-22T17:45:23;93370.06;;;20.96;44.74
59829;BME280;45708;51.848;107.620;2023-06-22T17:50:25;93370.91;;;20.88;45.27
59829;BME280;45708;51.848;107.620;2023-06-22T17:55:26;93359.28;;;20.75;45.03
59829;BME280;45708;51.848;107.620;2023-06-22T18:00:27;93362.88;;;20.88;45.26
59829;BME280;45708;51.848;107.620;2023-06-22T18:05:33;93356.41;;;20.80;45.19
59829;BME280;45708;51.848;107.620;2023-06-22T18:10:36;93342.88;;;20.77;46.33
59829;BME280;45708;51.848;107.620;2023-06-22T18:15:38;93317.56;;;20.57;46.98
59829;BME280;45708;51.848;107.620;2023-06-22T18:20:39;93335.00;;;20.72;47.18
59829;BME280;45708;51.848;107.620;2023-06-22T18:25:42;93322.59;;;20.58;47.45
59829;BME280;45708;51.848;107.620;2023-06-22T18:30:43;93349.63;;;20.83;48.54
59829;BME280;45708;51.848;107.620;2023-06-22T18:35:44;93353.16;;;20.95;48.21
59829;BME280;45708;51.848;107.620;2023-06-22T18:40:51;93340.19;;;20.77;47.83
59829;BME280;45708;51.848;107.620;2023-06-22T18:45:52;93372.06;;;20.78;48.25
59829;BME280;45708;51.848;107.620;2023-06-22T18:50:55;93391.50;;;20.75;48.35
59829;BME280;45708;51.848;107.620;2023-06-22T18:56:14;93416.25;;;20.81;48.68
59829;BME280;45708;51.848;107.620;2023-06-22T19:01:16;93432.78;;;20.91;49.25
59829;BME280;45708;51.848;107.620;2023-06-22T19:12:20;93431.13;;;20.70;49.39
59829;BME280;45708;51.848;107.620;2023-06-22T19:17:21;93454.47;;;20.78;50.24
59829;BME280;45708;51.848;107.620;2023-06-22T19:22:55;93477.50;;;20.79;49.97
59829;BME280;45708;51.848;107.620;2023-06-22T19:27:56;93485.09;;;20.77;50.67
59829;BME280;45708;51.848;107.620;2023-06-22T19:32:57;93483.50;;;20.76;51.26
59829;BME280;45708;51.848;107.620;2023-06-22T19:37:57;93487.66;;;20.64;51.55
59829;BME280;45708;51.848;107.620;2023-06-22T19:42:58;93504.72;;;20.51;51.59
59829;BME280;45708;51.848;107.620;2023-06-22T19:47:59;93522.22;;;20.40;51.96
59829;BME280;45708;51.848;107.620;2023-06-22T19:53:00;93513.88;;;20.33;52.08
59829;BME280;45708;51.848;107.620;2023-06-22T19:58:01;93494.19;;;20.20;52.67
59829;BME280;45708;51.848;107.620;2023-06-22T20:03:02;93481.44;;;20.09;53.11
59829;BME280;45708;51.848;107.620;2023-06-22T20:08:03;93452.56;;;19.97;54.14
59829;BME280;45708;51.848;107.620;2023-06-22T20:13:16;93486.97;;;19.86;53.80
59829;BME280;45708;51.848;107.620;2023-06-22T20:18:22;93482.25;;;19.83;54.50
59829;BME280;45708;51.848;107.620;2023-06-22T20:23:22;93487.41;;;19.71;55.99
59829;BME280;45708;51.848;107.620;2023-06-22T20:28:25;93533.28;;;19.69;55.43
59829;BME280;45708;51.848;107.620;2023-06-22T20:33:26;93542.56;;;19.72;55.54
59829;BME280;45708;51.848;107.620;2023-06-22T20:38:27;93541.47;;;19.64;56.27
59829;BME280;45708;51.848;107.620;2023-06-22T20:43:28;93541.91;;;19.58;57.11
59829;BME280;45708;51.848;107.620;2023-06-22T20:48:29;93537.59;;;19.39;58.00
59829;BME280;45708;51.848;107.620;2023-06-22T20:53:29;93537.59;;;19.39;58.47
59829;BME280;45708;51.848;107.620;2023-06-22T20:58:30;93560.59;;;19.40;58.90
59829;BME280;45708;51.848;107.620;2023-06-22T21:03:31;93561.69;;;19.39;58.99
59829;BME280;45708;51.848;107.620;2023-06-22T21:08:32;93561.69;;;19.39;59.17
59829;BME280;45708;51.848;107.620;2023-06-22T21:13:32;93555.38;;;19.35;59.27
59829;BME280;45708;51.848;107.620;2023-06-22T21:18:33;93546.59;;;19.43;59.58
59829;BME280;45708;51.848;107.620;2023-06-22T21:23:34;93552.56;;;19.40;60.04
59829;BME280;45708;51.848;107.620;2023-06-22T21:28:35;93564.84;;;19.41;60.11
59829;BME280;45708;51.848;107.620;2023-06-22T21:33:35;93563.75;;;19.42;60.44
59829;BME280;45708;51.848;107.620;2023-06-22T21:38:36;93593.81;;;19.39;60.50
59829;BME280;45708;51.848;107.620;2023-06-22T21:43:37;93591.13;;;19.39;60.60
59829;BME280;45708;51.848;107.620;2023-06-22T21:48:38;93609.28;;;19.42;60.96
59829;BME280;45708;51.848;107.620;2023-06-22T21:53:39;93602.38;;;19.50;60.81
59829;BME280;45708;51.848;107.620;2023-06-22T21:58:39;93621.91;;;19.51;60.77
59829;BME280;45708;51.848;107.620;2023-06-22T22:03:40;93621.91;;;19.51;61.49
59829;BME280;45708;51.848;107.620;2023-06-22T22:08:41;93629.34;;;19.54;61.40
59829;BME280;45708;51.848;107.620;2023-06-22T22:13:42;93620.06;;;19.60;61.85
59829;BME280;45708;51.848;107.620;2023-06-22T22:18:43;93630.81;;;19.68;62.34
59829;BME280;45708;51.848;107.620;2023-06-22T22:23:44;93632.56;;;19.64;62.72
59829;BME280;45708;51.848;107.620;2023-06-22T22:28:45;93639.81;;;19.72;62.71
59829;BME280;45708;51.848;107.620;2023-06-22T22:33:45;93643.13;;;19.78;63.07
59829;BME280;45708;51.848;107.620;2023-06-22T22:38:46;93644.38;;;19.72;63.55
59829;BME280;45708;51.848;107.620;2023-06-22T22:43:47;93641.84;;;19.67;63.96
59829;BME280;45708;51.848;107.620;2023-06-22T22:48:48;93654.69;;;19.87;63.45
59829;BME280;45708;51.848;107.620;2023-06-22T22:53:49;93650.19;;;20.31;62.85
59829;BME280;45708;51.848;107.620;2023-06-22T22:58:50;93642.97;;;20.49;62.33
59829;BME280;45708;51.848;107.620;2023-06-22T23:03:51;93655.59;;;20.65;62.09
59829;BME280;45708;51.848;107.620;2023-06-22T23:08:52;93652.91;;;20.65;61.74
59829;BME280;45708;51.848;107.620;2023-06-22T23:13:54;93657.00;;;20.72;61.58
59829;BME280;45708;51.848;107.620;2023-06-22T23:18:55;93670.38;;;21.15;60.94
59829;BME280;45708;51.848;107.620;2023-06-22T23:23:56;93668.13;;;21.43;60.27
59829;BME280;45708;51.848;107.620;2023-06-22T23:28:57;93680.69;;;21.68;59.95
59829;BME280;45708;51.848;107.620;2023-06-22T23:33:58;93702.59;;;21.79;59.56
59829;BME280;45708;51.848;107.620;2023-06-22T23:38:59;93722.31;;;21.92;59.18
59829;BME280;45708;51.848;107.620;2023-06-22T23:43:59;93740.03;;;21.93;59.21
59829;BME280;45708;51.848;107.620;2023-06-22T23:49:00;93742.50;;;22.44;57.74
59829;BME280;45708;51.848;107.620;2023-06-22T23:54:01;93764.38;;;22.05;58.48
59829;BME280;45708;51.848;107.620;2023-06-22T23:59:02;93769.78;;;21.88;59.15
